Time;durP1;ratioP1;P1;durP2;ratioP2;P2;SDS_P1;SDS_P2;PMS_P1;PMS_P2;Temp;Humidity;BMP_temperature;BMP_pressure;BME280_temperature;BME280_humidity;BME280_pressure;Samples;Min_cycle;Max_cycle;Signal;HPM_P1;HPM_P2
2022/11/08 05:00:36;;;;;;;1999.90;999.90;;;4.50;99.90;;;;;;5958125;22;20488;-74
2022/11/08 05:03:01;;;;;;;1999.90;999.90;;;4.50;99.90;;;;;;4996766;28;20047;-74
2022/11/08 05:05:27;;;;;;;1999.90;999.90;;;4.50;99.90;;;;;;4996818;28;20376;-75
2022/11/08 05:07:53;;;;;;;1999.90;999.90;;;4.50;99.90;;;;;;4997044;28;20443;-75
2022/11/08 05:10:19;;;;;;;1999.90;999.90;;;4.50;99.90;;;;;;4995074;28;20035;-75
2022/11/08 05:12:44;;;;;;;1999.90;999.90;;;4.50;99.90;;;;;;4996604;28;20500;-75
2022/11/08 05:15:11;;;;;;;1999.90;999.90;;;4.50;99.90;;;;;;5018988;22;20055;-76
2022/11/08 05:17:36;;;;;;;1999.90;999.90;;;4.40;99.90;;;;;;4996458;28;20511;-75
2022/11/08 05:25:32;;;;;;;1999.90;999.90;;;4.30;99.90;;;;;;4977219;28;20032;-75
2022/11/08 05:27:57;;;;;;;1999.90;999.90;;;4.30;99.90;;;;;;4975428;28;20039;-76
2022/11/08 05:30:23;;;;;;;1999.90;999.90;;;4.30;99.90;;;;;;4975619;28;20473;-76
2022/11/08 05:32:51;;;;;;;1999.90;999.90;;;4.30;99.90;;;;;;4975498;28;20043;-75
2022/11/08 05:35:20;;;;;;;1999.90;999.90;;;4.20;99.90;;;;;;4975049;28;20035;-76
2022/11/08 05:37:46;;;;;;;1999.90;999.90;;;4.20;99.90;;;;;;4976814;28;20522;-76
2022/11/08 05:40:11;;;;;;;1999.90;999.90;;;4.10;99.90;;;;;;4977063;28;20132;-76
2022/11/08 05:42:37;;;;;;;1999.90;999.90;;;4.10;99.90;;;;;;4976589;28;20441;-76
2022/11/08 05:45:03;;;;;;;1999.90;999.90;;;4.10;99.90;;;;;;4975615;28;20027;-76
2022/11/08 05:47:28;;;;;;;1999.90;999.90;;;4.10;99.90;;;;;;4976425;28;20047;-76
2022/11/08 05:49:54;;;;;;;1999.90;999.90;;;4.10;99.90;;;;;;4976117;28;20038;-76
2022/11/08 05:52:19;;;;;;;1999.90;999.90;;;4.20;99.90;;;;;;4976699;28;20047;-76
2022/11/08 05:54:45;;;;;;;1999.90;999.90;;;4.20;99.90;;;;;;4976213;28;20035;-76
2022/11/08 05:57:11;;;;;;;1999.90;999.90;;;4.20;99.90;;;;;;4975099;28;20035;-76
2022/11/08 05:59:36;;;;;;;1999.90;999.90;;;4.20;99.90;;;;;;4975051;28;20106;-76
2022/11/08 06:02:02;;;;;;;1999.90;999.90;;;4.20;99.90;;;;;;4976704;28;20071;-76
2022/11/08 06:04:28;;;;;;;1999.90;999.90;;;4.10;99.90;;;;;;4976252;28;20541;-76
2022/11/08 06:06:53;;;;;;;1999.90;999.90;;;4.00;99.90;;;;;;4976210;28;20090;-76
2022/11/08 06:09:19;;;;;;;1999.90;999.90;;;4.00;99.90;;;;;;4976620;28;20042;-76
2022/11/08 06:11:44;;;;;;;1999.90;999.90;;;4.10;99.90;;;;;;4975811;28;20098;-76
2022/11/08 06:14:10;;;;;;;1999.90;999.90;;;4.10;99.90;;;;;;4976378;28;20043;-76
2022/11/08 06:16:35;;;;;;;1999.90;999.90;;;4.00;99.90;;;;;;4974639;28;20050;-76
2022/11/08 06:19:04;;;;;;;1999.90;999.90;;;4.00;99.90;;;;;;4976151;28;20024;-76
2022/11/08 06:21:29;;;;;;;1999.90;999.90;;;4.10;99.90;;;;;;4974691;28;20133;-76
2022/11/08 06:23:55;;;;;;;1999.90;999.90;;;4.00;99.90;;;;;;4970883;28;20122;-76
2022/11/08 06:26:22;;;;;;;1999.90;999.90;;;4.00;99.90;;;;;;4966198;28;20043;-76
2022/11/08 06:28:48;;;;;;;1999.90;999.90;;;4.00;99.90;;;;;;4963986;28;20071;-76
2022/11/08 06:31:13;;;;;;;1999.90;999.90;;;4.00;99.90;;;;;;4966597;28;20136;-76
2022/11/08 06:33:39;;;;;;;1999.90;999.90;;;4.00;99.90;;;;;;4965211;28;20047;-75
2022/11/08 06:36:06;;;;;;;1999.90;999.90;;;4.00;99.90;;;;;;4964468;28;20035;-77
2022/11/08 06:38:39;;;;;;;1999.90;999.90;;;3.90;99.90;;;;;;4962865;28;20110;-77
2022/11/08 06:41:04;;;;;;;1999.90;999.90;;;4.00;99.90;;;;;;4969676;28;20036;-77
2022/11/08 06:43:30;;;;;;;1999.90;999.90;;;4.00;99.90;;;;;;4978130;28;20493;-76
2022/11/08 06:46:01;;;;;;;1999.90;999.90;;;4.00;99.90;;;;;;4976534;28;20039;-76
2022/11/08 06:48:27;;;;;;;1999.90;999.90;;;4.10;99.90;;;;;;4980331;28;20059;-77
2022/11/08 06:50:52;;;;;;;1999.90;999.90;;;4.10;99.90;;;;;;4978476;28;20437;-78
2022/11/08 06:53:18;;;;;;;1999.90;999.90;;;4.10;99.90;;;;;;4978376;28;20468;-77
2022/11/08 06:55:44;;;;;;;1999.90;999.90;;;4.10;99.90;;;;;;4976626;28;20485;-78
2022/11/08 06:58:09;;;;;;;1999.90;999.90;;;4.10;99.90;;;;;;4974834;28;20515;-76
2022/11/08 07:00:35;;;;;;;1999.90;999.90;;;4.20;99.90;;;;;;4977716;28;20524;-79
2022/11/08 07:03:02;;;;;;;1999.90;999.90;;;4.30;99.90;;;;;;4991287;28;20481;-79
2022/11/08 07:05:30;;;;;;;1999.90;999.90;;;4.20;99.90;;;;;;4972145;28;20043;-80
2022/11/08 07:07:59;;;;;;;1999.90;999.90;;;4.30;99.90;;;;;;4977092;28;20046;-78
2022/11/08 07:10:27;;;;;;;1999.90;999.90;;;4.40;99.90;;;;;;4975894;28;20042;-78
2022/11/08 07:12:59;;;;;;;1999.90;999.90;;;4.40;99.90;;;;;;4974229;28;20098;-78
2022/11/08 07:15:24;;;;;;;1999.90;999.90;;;4.50;99.90;;;;;;4975054;28;20070;-78
2022/11/08 07:17:50;;;;;;;1999.90;999.90;;;4.50;99.90;;;;;;4975572;28;20055;-78
2022/11/08 07:20:15;;;;;;;1999.90;999.90;;;4.60;99.90;;;;;;4974282;28;20035;-78
2022/11/08 07:22:41;;;;;;;1999.90;999.90;;;4.60;99.90;;;;;;4970193;28;20103;-77
2022/11/08 07:25:07;;;;;;;1999.90;999.90;;;4.70;99.90;;;;;;4956077;28;20028;-79
2022/11/08 07:27:33;;;;;;;1999.90;999.90;;;4.80;99.90;;;;;;4956671;28;20040;-79
2022/11/08 07:29:59;;;;;;;1999.90;999.90;;;4.90;99.90;;;;;;4956941;28;20044;-80
2022/11/08 07:32:24;;;;;;;1999.90;999.90;;;5.00;99.90;;;;;;4957244;28;20042;-80
2022/11/08 07:34:50;;;;;;;1999.90;999.90;;;5.10;99.90;;;;;;4957229;28;20039;-80
2022/11/08 07:37:15;;;;;;;1999.90;999.90;;;5.20;99.90;;;;;;4956966;28;20122;-80
2022/11/08 07:39:41;;;;;;;1999.90;999.90;;;5.30;99.90;;;;;;4958073;28;20462;-79
2022/11/08 07:42:07;;;;;;;1999.90;999.90;;;5.50;99.90;;;;;;4956978;28;20139;-80
2022/11/08 07:44:32;;;;;;;1999.90;999.90;;;5.60;99.90;;;;;;4957868;28;20054;-81
2022/11/08 07:46:58;;;;;;;1999.90;999.90;;;5.70;99.90;;;;;;4956416;28;20122;-81
2022/11/08 07:49:26;;;;;;;1999.90;999.90;;;5.90;99.90;;;;;;4956309;28;20390;-81
2022/11/08 07:51:52;;;;;;;1999.90;999.90;;;6.00;99.90;;;;;;4957643;28;20050;-81
2022/11/08 07:54:17;;;;;;;1999.90;999.90;;;6.10;99.90;;;;;;4958159;28;20579;-80
2022/11/08 07:56:43;;;;;;;1999.90;999.90;;;6.20;99.90;;;;;;4956435;28;20490;-81
2022/11/08 07:59:09;;;;;;;1999.90;999.90;;;6.30;99.90;;;;;;4955440;28;20486;-81
2022/11/08 08:01:35;;;;;;;1999.90;999.90;;;6.40;99.90;;;;;;4956414;28;20040;-81
2022/11/08 08:04:00;;;;;;;1999.90;999.90;;;6.50;99.90;;;;;;4954919;28;20035;-79
2022/11/08 08:06:26;;;;;;;1999.90;999.90;;;6.60;99.90;;;;;;4959648;28;20394;-80
2022/11/08 08:08:51;;;;;;;1999.90;999.90;;;6.80;99.90;;;;;;4959154;28;20085;-80
2022/11/08 08:11:17;;;;;;;1999.90;999.90;;;7.00;99.90;;;;;;4959869;28;20079;-80
2022/11/08 08:13:43;;;;;;;1999.90;999.90;;;7.00;99.90;;;;;;4958651;28;20084;-77
2022/11/08 08:16:08;;;;;;;1999.90;999.90;;;7.10;99.90;;;;;;4957091;28;20130;-77
2022/11/08 08:18:34;;;;;;;1999.90;999.90;;;7.30;99.90;;;;;;4958723;28;20039;-79
2022/11/08 08:20:59;;;;;;;1999.90;999.90;;;7.40;99.90;;;;;;4957037;28;20046;-77
2022/11/08 08:23:25;;;;;;;1999.90;999.90;;;7.60;99.90;;;;;;4957168;28;20042;-78
2022/11/08 08:25:51;;;;;;;1999.90;999.90;;;7.70;99.90;;;;;;4958446;28;20035;-77
2022/11/08 08:28:17;;;;;;;1999.90;999.90;;;7.80;99.90;;;;;;4957324;28;20074;-77
2022/11/08 08:30:43;;;;;;;1999.90;999.90;;;8.00;99.90;;;;;;4957201;28;20044;-78
2022/11/08 08:33:12;;;;;;;1999.90;999.90;;;7.90;99.90;;;;;;4958220;28;20032;-77
2022/11/08 08:35:39;;;;;;;1999.90;999.90;;;8.10;99.90;;;;;;4958013;28;20043;-77
2022/11/08 08:38:05;;;;;;;1999.90;999.90;;;8.30;99.90;;;;;;4957037;28;20047;-77
2022/11/08 08:40:32;;;;;;;1999.90;999.90;;;8.40;99.90;;;;;;4957000;28;20086;-74
2022/11/08 08:42:58;;;;;;;1999.90;999.90;;;8.60;99.90;;;;;;4959447;28;20039;-76
2022/11/08 08:45:24;;;;;;;1999.90;999.90;;;8.80;99.90;;;;;;4968241;28;20493;-77
2022/11/08 08:47:54;;;;;;;1999.90;999.90;;;9.00;99.90;;;;;;4976240;28;20087;-77
2022/11/08 08:50:21;;;;;;;1999.90;999.90;;;9.10;99.90;;;;;;4977747;28;20041;-77
2022/11/08 08:52:46;;;;;;;1999.90;999.90;;;9.20;99.90;;;;;;4976263;28;20035;-77
2022/11/08 08:55:12;;;;;;;1999.90;999.90;;;9.40;99.90;;;;;;4977477;28;20035;-76
2022/11/08 08:57:41;;;;;;;1999.90;999.90;;;9.60;99.90;;;;;;4977928;28;20051;-77
2022/11/08 09:00:08;;;;;;;1999.90;999.90;;;9.80;99.90;;;;;;4965888;28;20047;-77
2022/11/08 09:02:33;;;;;;;1999.90;999.90;;;10.00;99.90;;;;;;4965305;28;20040;-77
2022/11/08 09:04:59;;;;;;;1999.90;999.90;;;10.30;99.90;;;;;;4965722;28;20035;-78
2022/11/08 09:07:24;;;;;;;1999.90;999.90;;;10.40;99.90;;;;;;4967938;28;20772;-78
2022/11/08 09:09:50;;;;;;;1999.90;999.90;;;10.60;99.90;;;;;;4976374;28;20118;-78
2022/11/08 09:12:15;;;;;;;1999.90;999.90;;;10.80;99.90;;;;;;4976155;28;20039;-79
2022/11/08 09:14:41;;;;;;;1999.90;999.90;;;10.90;99.90;;;;;;4975358;28;20114;-78
2022/11/08 09:17:07;;;;;;;1999.90;999.90;;;11.00;99.90;;;;;;4995329;28;20459;-78
2022/11/08 09:19:32;;;;;;;1999.90;999.90;;;11.00;99.90;;;;;;4997383;28;20093;-79
2022/11/08 09:21:58;;;;;;;1999.90;999.90;;;11.00;99.90;;;;;;4995906;28;20560;-78
2022/11/08 09:24:23;;;;;;;1999.90;999.90;;;10.90;99.90;;;;;;4991911;28;20037;-78
2022/11/08 09:26:49;;;;;;;1999.90;999.90;;;10.80;99.90;;;;;;4983485;28;20037;-78
2022/11/08 09:29:14;;;;;;;1999.90;999.90;;;10.70;99.90;;;;;;4996494;28;20046;-78
2022/11/08 09:31:40;;;;;;;1999.90;999.90;;;10.60;99.90;;;;;;4994927;28;20117;-78
2022/11/08 09:34:05;;;;;;;1999.90;999.90;;;10.60;99.90;;;;;;4995965;28;20036;-78
2022/11/08 09:36:31;;;;;;;1999.90;999.90;;;10.60;99.90;;;;;;4994728;28;20031;-78
2022/11/08 09:38:57;;;;;;;1999.90;999.90;;;10.50;99.90;;;;;;4996472;28;20038;-78
2022/11/08 09:41:31;;;;;;;1999.90;999.90;;;10.60;99.90;;;;;;4996489;28;20042;-78
2022/11/08 09:44:09;;;;;;;1999.90;999.90;;;10.60;99.90;;;;;;4994821;28;20035;-78
2022/11/08 09:46:49;;;;;;;1999.90;999.90;;;10.70;99.90;;;;;;4996584;28;20030;-78
2022/11/08 09:49:24;;;;;;;1999.90;999.90;;;10.70;99.90;;;;;;4995336;28;20031;-78
2022/11/08 09:51:50;;;;;;;1999.90;999.90;;;10.60;99.90;;;;;;4997381;28;20041;-79
2022/11/08 09:54:26;;;;;;;1999.90;999.90;;;10.70;99.90;;;;;;4995062;28;20031;-79
2022/11/08 09:56:54;;;;;;;1999.90;999.90;;;10.80;99.90;;;;;;4996590;28;20544;-78
2022/11/08 09:59:41;;;;;;;1999.90;999.90;;;11.00;99.90;;;;;;4995988;28;20034;-79
2022/11/08 10:02:16;;;;;;;1999.90;999.90;;;11.30;99.90;;;;;;4996402;28;20118;-78
2022/11/08 10:04:45;;;;;;;1999.90;999.90;;;11.50;99.90;;;;;;4994767;28;20037;-79
2022/11/08 10:07:35;;;;;;;1999.90;999.90;;;11.80;99.90;;;;;;4994795;28;20038;-78
2022/11/08 10:10:23;;;;;;;1999.90;999.90;;;12.00;99.90;;;;;;4995572;28;20078;-79
2022/11/08 10:13:08;;;;;;;1999.90;999.90;;;12.30;99.90;;;;;;4995803;28;20046;-78
2022/11/08 10:16:00;;;;;;;1999.90;999.90;;;12.60;99.90;;;;;;4954422;28;20485;-80
2022/11/08 10:18:35;;;;;;;1999.90;999.90;;;12.80;99.90;;;;;;4994464;28;20031;-80
2022/11/08 10:21:34;;;;;;;1999.90;999.90;;;13.10;99.90;;;;;;4995642;28;20424;-79
2022/11/08 10:24:14;;;;;;;1999.90;999.90;;;13.40;99.90;;;;;;4995464;28;20039;-79
2022/11/08 10:26:44;;;;;;;1999.90;999.90;;;13.70;99.90;;;;;;4967645;28;20036;-78
2022/11/08 10:29:18;;;;;;;1999.90;999.90;;;14.00;99.90;;;;;;4956744;28;20067;-80
2022/11/08 10:31:45;;;;;;;1999.90;999.90;;;14.10;99.90;;;;;;4955830;28;20035;-80
2022/11/08 10:34:17;;;;;;;1999.90;999.90;;;14.30;99.90;;;;;;4955537;28;20035;-79
2022/11/08 10:36:46;;;;;;;1999.90;999.90;;;14.30;99.90;;;;;;4956646;28;20039;-79
2022/11/08 10:39:15;;;;;;;1999.90;999.90;;;14.50;99.90;;;;;;4956570;28;20063;-80
2022/11/08 10:42:04;;;;;;;1999.90;999.90;;;14.60;99.90;;;;;;4955092;28;20419;-79
2022/11/08 10:44:30;;;;;;;1999.90;999.90;;;14.70;99.90;;;;;;4954578;28;20123;-80
2022/11/08 10:46:56;;;;;;;1999.90;999.90;;;14.60;99.90;;;;;;4954839;28;20758;-79
2022/11/08 10:49:28;;;;;;;1999.90;999.90;;;14.70;99.90;;;;;;4956372;28;20032;-79
2022/11/08 10:52:07;;;;;;;1999.90;999.90;;;14.80;99.90;;;;;;4954973;28;20043;-79
2022/11/08 10:54:43;;;;;;;1999.90;999.90;;;14.70;99.90;;;;;;4956757;28;20032;-79
2022/11/08 10:57:22;;;;;;;1999.90;999.90;;;14.60;99.90;;;;;;4955147;28;20047;-79
2022/11/08 10:59:47;;;;;;;1999.90;999.90;;;14.50;99.90;;;;;;4956657;28;20087;-80
2022/11/08 11:02:21;;;;;;;1999.90;999.90;;;14.50;99.90;;;;;;4954493;28;20095;-79
2022/11/08 11:04:47;;;;;;;1999.90;999.90;;;14.40;99.90;;;;;;4954608;28;20050;-80
2022/11/08 11:07:27;;;;;;;1999.90;999.90;;;14.60;99.90;;;;;;4954949;28;20040;-79
2022/11/08 11:09:52;;;;;;;1999.90;999.90;;;14.80;99.90;;;;;;4956380;28;20090;-79
2022/11/08 11:12:18;;;;;;;1999.90;999.90;;;14.80;99.90;;;;;;4955959;28;20080;-79
2022/11/08 11:14:43;;;;;;;1999.90;999.90;;;14.90;99.90;;;;;;4971334;23;20051;-77
2022/11/08 11:17:17;;;;;;;1999.90;999.90;;;15.00;99.90;;;;;;5005101;28;20129;-78
2022/11/08 11:19:54;;;;;;;1999.90;999.90;;;15.00;99.90;;;;;;5007810;28;20026;-78
2022/11/08 11:22:38;;;;;;;1999.90;999.90;;;15.10;99.90;;;;;;4996631;28;20070;-77
2022/11/08 11:25:15;;;;;;;1999.90;999.90;;;15.20;99.90;;;;;;4994467;28;20396;-78
2022/11/08 11:27:41;;;;;;;1999.90;999.90;;;15.30;99.90;;;;;;4986788;28;20094;-77
2022/11/08 11:30:28;;;;;;;1999.90;999.90;;;15.40;99.90;;;;;;4973549;28;20042;-77
2022/11/08 11:33:24;;;;;;;1999.90;999.90;;;15.40;99.90;;;;;;4975988;28;20819;-79
2022/11/08 11:35:58;;;;;;;1999.90;999.90;;;15.50;99.90;;;;;;4983535;28;20040;-79
2022/11/08 11:39:03;;;;;;;1999.90;999.90;;;15.40;99.90;;;;;;4976195;28;20039;-79
2022/11/08 11:41:36;;;;;;;1999.90;999.90;;;15.30;99.90;;;;;;4978340;28;20059;-77
2022/11/08 11:44:24;;;;;;;1999.90;999.90;;;15.10;99.90;;;;;;4978584;28;20606;-76
2022/11/08 11:46:59;;;;;;;1999.90;999.90;;;14.90;99.90;;;;;;4992956;28;20031;-77
2022/11/08 11:49:28;;;;;;;1999.90;999.90;;;14.80;99.90;;;;;;4978509;28;20488;-77
2022/11/08 11:51:54;;;;;;;1999.90;999.90;;;14.70;99.90;;;;;;4978204;28;20031;-77
2022/11/08 11:54:26;;;;;;;1999.90;999.90;;;14.70;99.90;;;;;;4976627;28;20123;-77
2022/11/08 11:57:02;;;;;;;1999.90;999.90;;;14.70;99.90;;;;;;4977873;28;20046;-77
2022/11/08 11:59:36;;;;;;;1999.90;999.90;;;14.80;99.90;;;;;;4977979;28;20118;-77
2022/11/08 12:02:23;;;;;;;1999.90;999.90;;;14.90;99.90;;;;;;4978232;28;20806;-77
2022/11/08 12:04:56;;;;;;;1999.90;999.90;;;15.00;99.90;;;;;;4977546;28;20404;-77
2022/11/08 12:07:27;;;;;;;1999.90;999.90;;;15.00;99.90;;;;;;4978141;28;20063;-77
2022/11/08 12:09:52;;;;;;;1999.90;999.90;;;15.20;99.90;;;;;;4977948;28;20031;-77
2022/11/08 12:12:40;;;;;;;1999.90;999.90;;;15.40;99.90;;;;;;4977940;28;20043;-77
2022/11/08 12:15:47;;;;;;;1999.90;999.90;;;15.70;99.90;;;;;;4975865;28;20046;-77
2022/11/08 12:18:21;;;;;;;1999.90;999.90;;;15.90;99.90;;;;;;4963621;28;20051;-77
2022/11/08 12:21:00;;;;;;;1999.90;999.90;;;16.10;99.90;;;;;;4978041;28;20035;-78
2022/11/08 12:23:25;;;;;;;1999.90;999.90;;;16.40;99.90;;;;;;4978123;28;20493;-79
2022/11/08 12:25:51;;;;;;;1999.90;999.90;;;16.60;99.90;;;;;;4977601;28;20031;-76
2022/11/08 12:28:32;;;;;;;1999.90;999.90;;;16.80;99.90;;;;;;4977634;28;20043;-77
2022/11/08 12:31:14;;;;;;;1999.90;999.90;;;16.90;99.90;;;;;;4977445;28;20083;-84
2022/11/08 12:33:57;;;;;;;1999.90;999.90;;;17.00;99.90;;;;;;4978737;28;20563;-78
2022/11/08 12:36:32;;;;;;;1999.90;999.90;;;17.10;99.90;;;;;;4975911;28;20179;-80
2022/11/08 12:39:12;;;;;;;1999.90;999.90;;;17.30;99.90;;;;;;4977500;28;20110;-77
2022/11/08 12:42:05;;;;;;;1999.90;999.90;;;17.30;99.90;;;;;;4992582;28;20476;-76
2022/11/08 12:44:57;;;;;;;1999.90;999.90;;;17.20;99.90;;;;;;4977677;28;20035;-78
2022/11/08 12:47:42;;;;;;;1999.90;999.90;;;17.10;99.90;;;;;;4977579;28;20043;-79
2022/11/08 12:50:31;;;;;;;1999.90;999.90;;;17.10;99.90;;;;;;4977049;28;20027;-79
2022/11/08 12:53:29;;;;;;;1999.90;999.90;;;17.10;99.90;;;;;;4976590;28;20032;-82
2022/11/08 12:55:56;;;;;;;1999.90;999.90;;;17.00;99.90;;;;;;4977191;28;20036;-79
2022/11/08 12:58:41;;;;;;;1999.90;999.90;;;16.90;99.90;;;;;;4992153;28;20039;-78
2022/11/08 13:01:15;;;;;;;1999.90;999.90;;;16.90;99.90;;;;;;4977676;28;20501;-79
2022/11/08 13:03:48;;;;;;;1999.90;999.90;;;16.90;99.90;;;;;;4977322;28;20540;-80
2022/11/08 13:07:02;;;;;;;1999.90;999.90;;;16.90;99.90;;;;;;4977373;28;20027;-80
2022/11/08 13:09:35;;;;;;;1999.90;999.90;;;16.90;99.90;;;;;;4963997;28;20540;-80
2022/11/08 13:12:18;;;;;;;1999.90;999.90;;;16.90;99.90;;;;;;4981939;28;20492;-80
2022/11/08 13:14:44;;;;;;;1999.90;999.90;;;17.00;99.90;;;;;;4996061;28;20049;-80
2022/11/08 13:17:16;;;;;;;1999.90;999.90;;;17.10;99.90;;;;;;4996419;28;20042;-80
2022/11/08 13:19:48;;;;;;;1999.90;999.90;;;17.10;99.90;;;;;;4997940;28;20397;-80
2022/11/08 13:22:44;;;;;;;1999.90;999.90;;;17.00;99.90;;;;;;5000058;28;20500;-82
2022/11/08 13:25:12;;;;;;;1999.90;999.90;;;17.00;99.90;;;;;;4983251;28;20102;-81
2022/11/08 13:27:41;;;;;;;1999.90;999.90;;;16.90;99.90;;;;;;4995952;28;20031;-80
2022/11/08 13:30:15;;;;;;;1999.90;999.90;;;16.80;99.90;;;;;;4997202;28;20456;-80
2022/11/08 13:32:49;;;;;;;1999.90;999.90;;;16.60;99.90;;;;;;4996081;28;20081;-80
2022/11/08 13:35:37;;;;;;;1999.90;999.90;;;16.60;99.90;;;;;;4995082;28;20507;-80
2022/11/08 13:38:32;;;;;;;1999.90;999.90;;;16.50;99.90;;;;;;4995446;28;20043;-81
2022/11/08 13:41:12;;;;;;;1999.90;999.90;;;16.50;99.90;;;;;;4995349;28;20042;-80
2022/11/08 13:43:38;;;;;;;1999.90;999.90;;;16.50;99.90;;;;;;4995191;28;20635;-80
2022/11/08 13:46:18;;;;;;;1999.90;999.90;;;16.40;99.90;;;;;;4996059;28;20045;-80
2022/11/08 13:49:04;;;;;;;1999.90;999.90;;;16.40;99.90;;;;;;4996808;28;20452;-80
2022/11/08 13:51:37;;;;;;;1999.90;999.90;;;16.30;99.90;;;;;;4996670;28;20091;-80
2022/11/08 13:54:25;;;;;;;1999.90;999.90;;;16.10;99.90;;;;;;4997169;28;20468;-80
2022/11/08 13:56:58;;;;;;;1999.90;999.90;;;16.00;99.90;;;;;;4996949;28;20483;-80
2022/11/08 13:59:30;;;;;;;1999.90;999.90;;;15.90;99.90;;;;;;4997040;28;20382;-80
2022/11/08 14:02:13;;;;;;;1999.90;999.90;;;15.80;99.90;;;;;;4997386;28;20046;-80
2022/11/08 14:04:40;;;;;;;1999.90;999.90;;;15.80;99.90;;;;;;4996592;28;20683;-80
2022/11/08 14:07:09;;;;;;;1999.90;999.90;;;15.60;99.90;;;;;;4996714;28;20049;-79
2022/11/08 14:10:15;;;;;;;1999.90;999.90;;;15.70;99.90;;;;;;4997741;28;20031;-79
2022/11/08 14:13:07;;;;;;;1999.90;999.90;;;15.70;99.90;;;;;;4987680;28;20068;-79
2022/11/08 14:15:54;;;;;;;1999.90;999.90;;;15.60;99.90;;;;;;4987719;28;20051;-79
2022/11/08 14:18:26;;;;;;;1999.90;999.90;;;15.50;99.90;;;;;;4997097;28;20043;-78
2022/11/08 14:20:53;;;;;;;1999.90;999.90;;;15.40;99.90;;;;;;4995354;28;20117;-78
2022/11/08 14:23:19;;;;;;;1999.90;999.90;;;15.40;99.90;;;;;;4996734;28;20035;-79
2022/11/08 14:25:55;;;;;;;1999.90;999.90;;;15.40;99.90;;;;;;4995652;28;20508;-80
2022/11/08 14:28:25;;;;;;;1999.90;999.90;;;15.30;99.90;;;;;;4995906;28;20540;-79
2022/11/08 14:30:51;;;;;;;1999.90;999.90;;;15.20;99.90;;;;;;4995637;28;20041;-79
2022/11/08 14:33:22;;;;;;;1999.90;999.90;;;15.30;99.90;;;;;;4997422;28;20030;-79
2022/11/08 14:35:59;;;;;;;1999.90;999.90;;;15.20;99.90;;;;;;4999838;28;20050;-79
2022/11/08 14:38:27;;;;;;;1999.90;999.90;;;15.00;99.90;;;;;;4997989;28;20035;-79
2022/11/08 14:40:57;;;;;;;1999.90;999.90;;;15.00;99.90;;;;;;4997862;28;20058;-79
2022/11/08 14:43:24;;;;;;;1999.90;999.90;;;14.90;99.90;;;;;;4997845;28;20039;-78
2022/11/08 14:45:50;;;;;;;1999.90;999.90;;;14.90;99.90;;;;;;4995893;28;20062;-83
2022/11/08 14:48:23;;;;;;;1999.90;999.90;;;14.90;99.90;;;;;;4994999;28;20046;-83
2022/11/08 14:50:56;;;;;;;1999.90;999.90;;;14.80;99.90;;;;;;4994949;28;20042;-79
2022/11/08 14:53:27;;;;;;;1999.90;999.90;;;14.80;99.90;;;;;;4995806;28;20038;-78
2022/11/08 14:56:01;;;;;;;1999.90;999.90;;;14.80;99.90;;;;;;4993407;28;20109;-77
2022/11/08 14:58:28;;;;;;;1999.90;999.90;;;14.80;99.90;;;;;;4997523;28;20432;-79
2022/11/08 15:00:54;;;;;;;1999.90;999.90;;;14.80;99.90;;;;;;4999234;28;20452;-78
2022/11/08 15:03:21;;;;;;;1999.90;999.90;;;14.70;99.90;;;;;;4996248;28;20432;-78
2022/11/08 15:05:54;;;;;;;1999.90;999.90;;;14.60;99.90;;;;;;4993955;28;20034;-81
2022/11/08 15:08:57;;;;;;;1999.90;999.90;;;14.50;99.90;;;;;;4996097;28;20031;-78
2022/11/08 15:11:35;;;;;;;1999.90;999.90;;;14.40;99.90;;;;;;4991116;28;20039;-81
2022/11/08 15:14:06;;;;;;;1999.90;999.90;;;14.20;99.90;;;;;;4976685;28;20036;-78
2022/11/08 15:16:43;;;;;;;1999.90;999.90;;;14.30;99.90;;;;;;4991240;28;20472;-78
2022/11/08 15:19:30;;;;;;;1999.90;999.90;;;14.40;99.90;;;;;;4995091;28;20882;-77
2022/11/08 15:22:01;;;;;;;1999.90;999.90;;;14.40;99.90;;;;;;4998498;28;20121;-80
2022/11/08 15:24:37;;;;;;;1999.90;999.90;;;14.30;99.90;;;;;;4995097;28;20062;-77
2022/11/08 15:27:14;;;;;;;1999.90;999.90;;;14.20;99.90;;;;;;4994731;28;20097;-77
2022/11/08 15:29:50;;;;;;;1999.90;999.90;;;14.10;99.90;;;;;;4994785;28;20031;-77
2022/11/08 15:32:17;;;;;;;1999.90;999.90;;;14.20;99.90;;;;;;4994616;28;20523;-77
2022/11/08 15:34:44;;;;;;;1999.90;999.90;;;14.20;99.90;;;;;;4994625;28;20046;-76
2022/11/08 15:37:32;;;;;;;1999.90;999.90;;;14.10;99.90;;;;;;4994661;28;20050;-82
2022/11/08 15:40:23;;;;;;;1999.90;999.90;;;14.00;99.90;;;;;;4991550;28;20043;-76
2022/11/08 15:42:50;;;;;;;1999.90;999.90;;;14.10;99.90;;;;;;4982399;28;20141;-77
2022/11/08 15:45:15;;;;;;;1999.90;999.90;;;14.00;99.90;;;;;;4994395;28;20035;-77
2022/11/08 15:47:41;;;;;;;1999.90;999.90;;;13.90;99.90;;;;;;4994527;28;20039;-78
2022/11/08 15:50:13;;;;;;;1999.90;999.90;;;14.00;99.90;;;;;;4994520;28;20412;-77
2022/11/08 15:52:38;;;;;;;1999.90;999.90;;;13.90;99.90;;;;;;4988315;28;20043;-75
2022/11/08 15:55:04;;;;;;;1999.90;999.90;;;14.00;99.90;;;;;;4993640;28;20035;-75
2022/11/08 15:57:30;;;;;;;1999.90;999.90;;;14.00;99.90;;;;;;4991754;28;20047;-75
2022/11/08 15:59:56;;;;;;;1999.90;999.90;;;14.00;99.90;;;;;;4992940;28;20061;-75
2022/11/08 16:02:23;;;;;;;1999.90;999.90;;;13.80;99.90;;;;;;4993261;28;20138;-75
2022/11/08 16:04:49;;;;;;;1999.90;999.90;;;13.90;99.90;;;;;;4992564;28;20038;-75
2022/11/08 16:07:15;;;;;;;1999.90;999.90;;;13.80;99.90;;;;;;4994139;28;20038;-75
2022/11/08 16:09:40;;;;;;;1999.90;999.90;;;13.80;99.90;;;;;;4994136;28;20046;-76
2022/11/08 16:12:06;;;;;;;1999.90;999.90;;;13.80;99.90;;;;;;4994403;28;20042;-76
2022/11/08 16:14:32;;;;;;;1999.90;999.90;;;13.90;99.90;;;;;;5009375;28;20041;-75
2022/11/08 16:16:57;;;;;;;1999.90;999.90;;;14.00;99.90;;;;;;5012545;28;20108;-75
2022/11/08 16:19:24;;;;;;;1999.90;999.90;;;14.10;99.90;;;;;;5013985;28;20069;-75
2022/11/08 16:21:50;;;;;;;1999.90;999.90;;;14.10;99.90;;;;;;5012183;28;20030;-75
2022/11/08 16:24:16;;;;;;;1999.90;999.90;;;14.10;99.90;;;;;;5013763;28;20520;-75
2022/11/08 16:26:43;;;;;;;1999.90;999.90;;;14.10;99.90;;;;;;5015875;28;20070;-75
2022/11/08 16:29:21;;;;;;;1999.90;999.90;;;14.00;99.90;;;;;;5017207;28;20042;-75
2022/11/08 16:31:48;;;;;;;1999.90;999.90;;;14.00;99.90;;;;;;5016926;28;20050;-75
2022/11/08 16:34:14;;;;;;;1999.90;999.90;;;13.90;99.90;;;;;;5015233;28;20086;-75
2022/11/08 16:36:42;;;;;;;1999.90;999.90;;;13.80;99.90;;;;;;5016788;28;20106;-76
2022/11/08 16:39:17;;;;;;;1999.90;999.90;;;13.90;99.90;;;;;;5016559;28;20050;-75
2022/11/08 16:41:42;;;;;;;1999.90;999.90;;;14.00;99.90;;;;;;5017133;28;20030;-77
2022/11/08 16:44:09;;;;;;;1999.90;999.90;;;13.90;99.90;;;;;;5016965;28;20039;-75
2022/11/08 16:46:35;;;;;;;1999.90;999.90;;;13.90;99.90;;;;;;5016573;28;20058;-76
2022/11/08 16:49:02;;;;;;;1999.90;999.90;;;13.80;99.90;;;;;;5016970;28;20507;-75
2022/11/08 16:51:29;;;;;;;1999.90;999.90;;;13.80;99.90;;;;;;5017432;28;20109;-75
2022/11/08 16:53:54;;;;;;;1999.90;999.90;;;13.90;99.90;;;;;;5017210;28;20026;-75
2022/11/08 16:56:20;;;;;;;1999.90;999.90;;;13.80;99.90;;;;;;5016286;28;20042;-75
2022/11/08 16:58:46;;;;;;;1999.90;999.90;;;13.80;99.90;;;;;;5017064;28;20037;-75
2022/11/08 17:01:18;;;;;;;1999.90;999.90;;;13.80;99.90;;;;;;5016882;28;20117;-75
2022/11/08 17:03:43;;;;;;;1999.90;999.90;;;13.80;99.90;;;;;;5016456;28;20049;-76
2022/11/08 17:06:14;;;;;;;1999.90;999.90;;;13.70;99.90;;;;;;5016001;28;20527;-76
2022/11/08 17:08:40;;;;;;;1999.90;999.90;;;13.50;99.90;;;;;;5016677;28;20510;-76
2022/11/08 17:11:05;;;;;;;1999.90;999.90;;;13.40;99.90;;;;;;5016489;28;20049;-76
2022/11/08 17:13:31;;;;;;;1999.90;999.90;;;13.40;99.90;;;;;;5016671;28;20054;-75
2022/11/08 17:15:56;;;;;;;1999.90;999.90;;;13.30;99.90;;;;;;5015920;28;20050;-75
2022/11/08 17:18:22;;;;;;;1999.90;999.90;;;13.20;99.90;;;;;;5016677;28;20030;-75
2022/11/08 17:20:48;;;;;;;1999.90;999.90;;;13.00;99.90;;;;;;5016564;28;20038;-75
2022/11/08 17:23:15;;;;;;;1999.90;999.90;;;12.80;99.90;;;;;;5016361;28;20038;-75
2022/11/08 17:25:41;;;;;;;1999.90;999.90;;;12.70;99.90;;;;;;5015989;28;20038;-75